sensor_id;sensor_type;location;lat;lon;timestamp;temperature;humidity
12849;DHT22;6493;50.928;7.172;2024-02-04T00:03:42;6.60;72.00
12849;DHT22;6493;50.928;7.172;2024-02-04T00:08:45;6.60;72.10
12849;DHT22;6493;50.928;7.172;2024-02-04T00:13:50;6.60;71.90
12849;DHT22;6493;50.928;7.172;2024-02-04T00:18:57;6.60;72.00
12849;DHT22;6493;50.928;7.172;2024-02-04T00:24:01;6.60;71.90
12849;DHT22;6493;50.928;7.172;2024-02-04T00:29:06;6.60;72.10
12849;DHT22;6493;50.928;7.172;2024-02-04T00:34:09;6.50;72.00
12849;DHT22;6493;50.928;7.172;2024-02-04T00:39:13;6.60;72.10
12849;DHT22;6493;50.928;7.172;2024-02-04T00:44:18;6.50;72.20
12849;DHT22;6493;50.928;7.172;2024-02-04T00:49:22;6.50;72.00
12849;DHT22;6493;50.928;7.172;2024-02-04T00:54:26;6.60;72.10
12849;DHT22;6493;50.928;7.172;2024-02-04T00:59:31;6.50;72.00
12849;DHT22;6493;50.928;7.172;2024-02-04T01:04:34;6.50;72.20
12849;DHT22;6493;50.928;7.172;2024-02-04T01:09:38;6.50;72.10
12849;DHT22;6493;50.928;7.172;2024-02-04T01:14:44;6.50;72.00
12849;DHT22;6493;50.928;7.172;2024-02-04T01:19:47;6.50;72.30
12849;DHT22;6493;50.928;7.172;2024-02-04T01:24:51;6.50;72.20
12849;DHT22;6493;50.928;7.172;2024-02-04T01:29:56;6.40;72.10
12849;DHT22;6493;50.928;7.172;2024-02-04T01:35:00;6.50;72.30
12849;DHT22;6493;50.928;7.172;2024-02-04T01:40:04;6.40;72.10
12849;DHT22;6493;50.928;7.172;2024-02-04T01:45:10;6.40;72.00
12849;DHT22;6493;50.928;7.172;2024-02-04T01:50:14;6.40;72.20
12849;DHT22;6493;50.928;7.172;2024-02-04T01:55:18;6.40;72.50
12849;DHT22;6493;50.928;7.172;2024-02-04T02:00:23;6.40;72.40
12849;DHT22;6493;50.928;7.172;2024-02-04T02:05:27;6.40;72.40
12849;DHT22;6493;50.928;7.172;2024-02-04T02:10:30;6.40;72.40
12849;DHT22;6493;50.928;7.172;2024-02-04T02:15:37;6.40;72.50
12849;DHT22;6493;50.928;7.172;2024-02-04T02:20:55;6.40;72.80
12849;DHT22;6493;50.928;7.172;2024-02-04T02:26:04;6.40;72.80
12849;DHT22;6493;50.928;7.172;2024-02-04T02:31:09;6.40;72.90
12849;DHT22;6493;50.928;7.172;2024-02-04T02:36:19;6.40;72.50
12849;DHT22;6493;50.928;7.172;2024-02-04T02:41:29;6.40;72.70
12849;DHT22;6493;50.928;7.172;2024-02-04T02:46:34;6.40;72.70
12849;DHT22;6493;50.928;7.172;2024-02-04T02:51:39;6.40;73.10
12849;DHT22;6493;50.928;7.172;2024-02-04T02:56:44;6.40;73.00
12849;DHT22;6493;50.928;7.172;2024-02-04T03:01:47;6.40;73.00
12849;DHT22;6493;50.928;7.172;2024-02-04T03:06:52;6.40;72.80
12849;DHT22;6493;50.928;7.172;2024-02-04T03:11:57;6.40;73.20
12849;DHT22;6493;50.928;7.172;2024-02-04T03:17:01;6.40;73.50
12849;DHT22;6493;50.928;7.172;2024-02-04T03:22:04;6.40;73.50
12849;DHT22;6493;50.928;7.172;2024-02-04T03:27:10;6.50;73.30
12849;DHT22;6493;50.928;7.172;2024-02-04T03:32:14;6.50;73.20
12849;DHT22;6493;50.928;7.172;2024-02-04T03:37:17;6.50;73.40
12849;DHT22;6493;50.928;7.172;2024-02-04T03:42:22;6.50;73.70
12849;DHT22;6493;50.928;7.172;2024-02-04T03:47:26;6.50;73.90
12849;DHT22;6493;50.928;7.172;2024-02-04T03:52:30;6.50;73.90
12849;DHT22;6493;50.928;7.172;2024-02-04T03:57:35;6.50;73.50
12849;DHT22;6493;50.928;7.172;2024-02-04T04:02:39;6.50;73.70
12849;DHT22;6493;50.928;7.172;2024-02-04T04:07:44;6.50;73.60
12849;DHT22;6493;50.928;7.172;2024-02-04T04:12:50;6.50;73.60
12849;DHT22;6493;50.928;7.172;2024-02-04T04:17:54;6.60;73.90
12849;DHT22;6493;50.928;7.172;2024-02-04T04:22:57;6.60;73.80
12849;DHT22;6493;50.928;7.172;2024-02-04T04:28:03;6.60;74.00
12849;DHT22;6493;50.928;7.172;2024-02-04T04:33:06;6.60;73.90
12849;DHT22;6493;50.928;7.172;2024-02-04T04:38:10;6.60;73.70
12849;DHT22;6493;50.928;7.172;2024-02-04T04:43:15;6.60;74.00
12849;DHT22;6493;50.928;7.172;2024-02-04T04:48:19;6.60;73.70
12849;DHT22;6493;50.928;7.172;2024-02-04T04:53:23;6.70;73.80
12849;DHT22;6493;50.928;7.172;2024-02-04T04:58:28;6.60;73.80
12849;DHT22;6493;50.928;7.172;2024-02-04T05:03:32;6.70;74.50
12849;DHT22;6493;50.928;7.172;2024-02-04T05:08:35;6.70;74.10
12849;DHT22;6493;50.928;7.172;2024-02-04T05:13:40;6.70;74.00
12849;DHT22;6493;50.928;7.172;2024-02-04T05:18:44;6.70;74.90
12849;DHT22;6493;50.928;7.172;2024-02-04T05:23:48;6.70;74.00
12849;DHT22;6493;50.928;7.172;2024-02-04T05:28:53;6.70;74.00
12849;DHT22;6493;50.928;7.172;2024-02-04T05:33:56;6.70;74.00
12849;DHT22;6493;50.928;7.172;2024-02-04T05:39:09;6.70;73.80
12849;DHT22;6493;50.928;7.172;2024-02-04T05:44:14;6.80;74.20
12849;DHT22;6493;50.928;7.172;2024-02-04T05:49:17;6.80;74.10
12849;DHT22;6493;50.928;7.172;2024-02-04T05:54:21;6.70;74.00
12849;DHT22;6493;50.928;7.172;2024-02-04T05:59:27;6.70;73.90
12849;DHT22;6493;50.928;7.172;2024-02-04T06:04:30;6.70;73.90
12849;DHT22;6493;50.928;7.172;2024-02-04T06:09:35;6.70;74.00
12849;DHT22;6493;50.928;7.172;2024-02-04T06:14:40;6.70;73.70
12849;DHT22;6493;50.928;7.172;2024-02-04T06:19:44;6.70;73.80
12849;DHT22;6493;50.928;7.172;2024-02-04T06:24:48;6.70;73.80
12849;DHT22;6493;50.928;7.172;2024-02-04T06:29:54;6.70;73.80
12849;DHT22;6493;50.928;7.172;2024-02-04T06:34:57;6.70;73.90
12849;DHT22;6493;50.928;7.172;2024-02-04T06:40:01;6.70;74.00
12849;DHT22;6493;50.928;7.172;2024-02-04T06:45:07;6.70;73.80
12849;DHT22;6493;50.928;7.172;2024-02-04T06:50:11;6.70;73.90
12849;DHT22;6493;50.928;7.172;2024-02-04T06:55:16;6.70;73.90
12849;DHT22;6493;50.928;7.172;2024-02-04T07:00:21;6.70;73.80
12849;DHT22;6493;50.928;7.172;2024-02-04T07:05:25;6.70;73.90
12849;DHT22;6493;50.928;7.172;2024-02-04T07:10:29;6.70;73.90
12849;DHT22;6493;50.928;7.172;2024-02-04T07:15:34;6.70;74.00
12849;DHT22;6493;50.928;7.172;2024-02-04T07:20:37;6.80;74.00
12849;DHT22;6493;50.928;7.172;2024-02-04T07:25:42;6.70;74.00
12849;DHT22;6493;50.928;7.172;2024-02-04T07:30:47;6.70;74.20
12849;DHT22;6493;50.928;7.172;2024-02-04T07:35:50;6.70;74.20
12849;DHT22;6493;50.928;7.172;2024-02-04T07:40:54;6.70;74.10
12849;DHT22;6493;50.928;7.172;2024-02-04T07:46:02;6.70;74.10
12849;DHT22;6493;50.928;7.172;2024-02-04T07:51:07;6.70;74.30
12849;DHT22;6493;50.928;7.172;2024-02-04T07:56:11;6.70;74.20
12849;DHT22;6493;50.928;7.172;2024-02-04T08:01:17;6.70;74.20
12849;DHT22;6493;50.928;7.172;2024-02-04T08:06:21;6.70;74.40
12849;DHT22;6493;50.928;7.172;2024-02-04T08:11:25;6.70;74.50
12849;DHT22;6493;50.928;7.172;2024-02-04T08:16:30;6.70;74.40
12849;DHT22;6493;50.928;7.172;2024-02-04T08:21:33;6.70;74.50
12849;DHT22;6493;50.928;7.172;2024-02-04T08:26:37;6.70;74.40
12849;DHT22;6493;50.928;7.172;2024-02-04T08:31:42;6.70;74.50
12849;DHT22;6493;50.928;7.172;2024-02-04T08:36:46;6.70;74.60
12849;DHT22;6493;50.928;7.172;2024-02-04T08:41:49;6.70;74.90
12849;DHT22;6493;50.928;7.172;2024-02-04T08:46:54;6.70;74.90
12849;DHT22;6493;50.928;7.172;2024-02-04T08:51:58;6.80;75.00
12849;DHT22;6493;50.928;7.172;2024-02-04T08:57:02;6.80;75.10
12849;DHT22;6493;50.928;7.172;2024-02-04T09:02:07;6.80;75.00
12849;DHT22;6493;50.928;7.172;2024-02-04T09:07:13;6.90;75.20
12849;DHT22;6493;50.928;7.172;2024-02-04T09:12:17;6.90;75.10
12849;DHT22;6493;50.928;7.172;2024-02-04T09:17:22;6.90;75.10
12849;DHT22;6493;50.928;7.172;2024-02-04T09:22:25;7.00;75.50
12849;DHT22;6493;50.928;7.172;2024-02-04T09:27:29;7.00;75.20
12849;DHT22;6493;50.928;7.172;2024-02-04T09:32:34;7.00;75.20
12849;DHT22;6493;50.928;7.172;2024-02-04T09:37:38;7.10;75.30
12849;DHT22;6493;50.928;7.172;2024-02-04T09:42:42;7.00;74.90
12849;DHT22;6493;50.928;7.172;2024-02-04T09:47:50;7.00;75.00
12849;DHT22;6493;50.928;7.172;2024-02-04T09:52:58;7.10;75.30
12849;DHT22;6493;50.928;7.172;2024-02-04T09:58:03;7.10;75.50
12849;DHT22;6493;50.928;7.172;2024-02-04T10:03:08;7.10;75.40
12849;DHT22;6493;50.928;7.172;2024-02-04T10:08:12;7.20;75.90
12849;DHT22;6493;50.928;7.172;2024-02-04T10:13:19;7.20;75.90
12849;DHT22;6493;50.928;7.172;2024-02-04T10:18:24;7.20;75.70
12849;DHT22;6493;50.928;7.172;2024-02-04T10:23:28;7.30;75.70
12849;DHT22;6493;50.928;7.172;2024-02-04T10:28:32;7.30;75.60
12849;DHT22;6493;50.928;7.172;2024-02-04T10:33:38;7.40;75.60
12849;DHT22;6493;50.928;7.172;2024-02-04T10:38:42;7.40;75.70
12849;DHT22;6493;50.928;7.172;2024-02-04T10:43:45;7.40;75.70
12849;DHT22;6493;50.928;7.172;2024-02-04T10:48:54;7.40;75.40
12849;DHT22;6493;50.928;7.172;2024-02-04T10:53:59;7.40;75.40
12849;DHT22;6493;50.928;7.172;2024-02-04T10:59:07;7.40;75.30
12849;DHT22;6493;50.928;7.172;2024-02-04T11:04:12;7.40;75.30
12849;DHT22;6493;50.928;7.172;2024-02-04T11:09:16;7.40;75.40
12849;DHT22;6493;50.928;7.172;2024-02-04T11:14:22;7.40;75.40
12849;DHT22;6493;50.928;7.172;2024-02-04T11:19:36;7.50;75.30
12849;DHT22;6493;50.928;7.172;2024-02-04T11:24:54;7.40;75.20
12849;DHT22;6493;50.928;7.172;2024-02-04T11:30:03;7.40;75.30
12849;DHT22;6493;50.928;7.172;2024-02-04T11:35:09;7.40;75.40
12849;DHT22;6493;50.928;7.172;2024-02-04T11:40:15;7.40;75.30
12849;DHT22;6493;50.928;7.172;2024-02-04T11:45:19;7.40;75.40
12849;DHT22;6493;50.928;7.172;2024-02-04T11:50:30;7.40;75.30
12849;DHT22;6493;50.928;7.172;2024-02-04T11:55:34;7.40;75.80
12849;DHT22;6493;50.928;7.172;2024-02-04T12:00:42;7.50;75.80
12849;DHT22;6493;50.928;7.172;2024-02-04T12:05:48;7.50;75.70
12849;DHT22;6493;50.928;7.172;2024-02-04T12:10:52;7.50;76.20
12849;DHT22;6493;50.928;7.172;2024-02-04T12:15:56;7.50;75.40
12849;DHT22;6493;50.928;7.172;2024-02-04T12:21:01;7.50;75.80
12849;DHT22;6493;50.928;7.172;2024-02-04T12:26:06;7.50;75.50
12849;DHT22;6493;50.928;7.172;2024-02-04T12:31:16;7.50;75.40
12849;DHT22;6493;50.928;7.172;2024-02-04T12:36:22;7.50;75.40
12849;DHT22;6493;50.928;7.172;2024-02-04T12:41:26;7.50;75.30
12849;DHT22;6493;50.928;7.172;2024-02-04T12:46:30;7.50;75.40
12849;DHT22;6493;50.928;7.172;2024-02-04T12:51:35;7.50;75.30
12849;DHT22;6493;50.928;7.172;2024-02-04T12:56:44;7.50;75.40
12849;DHT22;6493;50.928;7.172;2024-02-04T13:01:52;7.50;75.40
12849;DHT22;6493;50.928;7.172;2024-02-04T13:06:58;7.50;75.40
12849;DHT22;6493;50.928;7.172;2024-02-04T13:12:05;7.50;75.40
12849;DHT22;6493;50.928;7.172;2024-02-04T13:17:10;7.40;75.20
12849;DHT22;6493;50.928;7.172;2024-02-04T13:22:15;7.40;75.30
12849;DHT22;6493;50.928;7.172;2024-02-04T13:27:19;7.40;75.30
12849;DHT22;6493;50.928;7.172;2024-02-04T13:32:23;7.40;75.90
12849;DHT22;6493;50.928;7.172;2024-02-04T13:37:28;7.40;75.60
12849;DHT22;6493;50.928;7.172;2024-02-04T13:42:31;7.30;75.50
12849;DHT22;6493;50.928;7.172;2024-02-04T13:47:35;7.30;75.30
12849;DHT22;6493;50.928;7.172;2024-02-04T13:52:41;7.30;75.40
12849;DHT22;6493;50.928;7.172;2024-02-04T13:57:44;7.30;75.50
12849;DHT22;6493;50.928;7.172;2024-02-04T14:02:48;7.30;75.40
12849;DHT22;6493;50.928;7.172;2024-02-04T14:07:53;7.30;75.50
12849;DHT22;6493;50.928;7.172;2024-02-04T14:13:01;7.30;75.60
12849;DHT22;6493;50.928;7.172;2024-02-04T14:18:06;7.30;75.50
12849;DHT22;6493;50.928;7.172;2024-02-04T14:23:11;7.30;75.50
12849;DHT22;6493;50.928;7.172;2024-02-04T14:28:15;7.30;75.50
12849;DHT22;6493;50.928;7.172;2024-02-04T14:33:19;7.30;75.40
12849;DHT22;6493;50.928;7.172;2024-02-04T14:38:24;7.30;75.40
12849;DHT22;6493;50.928;7.172;2024-02-04T14:43:27;7.30;75.50
12849;DHT22;6493;50.928;7.172;2024-02-04T14:48:31;7.30;75.50
12849;DHT22;6493;50.928;7.172;2024-02-04T14:53:36;7.30;75.50
12849;DHT22;6493;50.928;7.172;2024-02-04T14:58:40;7.30;75.50
12849;DHT22;6493;50.928;7.172;2024-02-04T15:03:44;7.30;75.50
12849;DHT22;6493;50.928;7.172;2024-02-04T15:08:50;7.40;75.60
12849;DHT22;6493;50.928;7.172;2024-02-04T15:13:54;7.30;75.50
12849;DHT22;6493;50.928;7.172;2024-02-04T15:18:58;7.30;75.40
12849;DHT22;6493;50.928;7.172;2024-02-04T15:24:04;7.30;75.40
12849;DHT22;6493;50.928;7.172;2024-02-04T15:29:09;7.30;75.40
12849;DHT22;6493;50.928;7.172;2024-02-04T15:34:17;7.40;75.60
12849;DHT22;6493;50.928;7.172;2024-02-04T15:39:22;7.30;75.40
12849;DHT22;6493;50.928;7.172;2024-02-04T15:44:25;7.30;75.50
12849;DHT22;6493;50.928;7.172;2024-02-04T15:49:29;7.30;75.40
12849;DHT22;6493;50.928;7.172;2024-02-04T15:54:35;7.30;75.50
12849;DHT22;6493;50.928;7.172;2024-02-04T15:59:47;7.30;75.50
12849;DHT22;6493;50.928;7.172;2024-02-04T16:04:52;7.30;75.50
12849;DHT22;6493;50.928;7.172;2024-02-04T16:09:59;7.20;75.40
12849;DHT22;6493;50.928;7.172;2024-02-04T16:15:04;7.30;75.70
12849;DHT22;6493;50.928;7.172;2024-02-04T16:20:12;7.20;75.50
12849;DHT22;6493;50.928;7.172;2024-02-04T16:25:18;7.20;75.60
12849;DHT22;6493;50.928;7.172;2024-02-04T16:30:22;7.20;75.60
12849;DHT22;6493;50.928;7.172;2024-02-04T16:35:27;7.20;75.70
12849;DHT22;6493;50.928;7.172;2024-02-04T16:40:31;7.20;75.70
12849;DHT22;6493;50.928;7.172;2024-02-04T16:45:35;7.20;75.50
12849;DHT22;6493;50.928;7.172;2024-02-04T16:50:39;7.20;75.50
12849;DHT22;6493;50.928;7.172;2024-02-04T16:55:44;7.20;75.60
12849;DHT22;6493;50.928;7.172;2024-02-04T17:00:47;7.20;75.90
12849;DHT22;6493;50.928;7.172;2024-02-04T17:05:52;7.20;75.70
12849;DHT22;6493;50.928;7.172;2024-02-04T17:11:00;7.20;75.60
12849;DHT22;6493;50.928;7.172;2024-02-04T17:16:11;7.20;75.60
12849;DHT22;6493;50.928;7.172;2024-02-04T17:21:17;7.20;75.50
12849;DHT22;6493;50.928;7.172;2024-02-04T17:33:37;7.20;75.40
12849;DHT22;6493;50.928;7.172;2024-02-04T17:38:52;7.30;75.30
12849;DHT22;6493;50.928;7.172;2024-02-04T17:44:18;7.30;75.20
12849;DHT22;6493;50.928;7.172;2024-02-04T17:49:23;7.30;75.20
12849;DHT22;6493;50.928;7.172;2024-02-04T17:54:27;7.30;75.20
12849;DHT22;6493;50.928;7.172;2024-02-04T17:59:33;7.30;75.10
12849;DHT22;6493;50.928;7.172;2024-02-04T18:36:33;7.30;75.00
12849;DHT22;6493;50.928;7.172;2024-02-04T18:41:37;7.30;74.90
12849;DHT22;6493;50.928;7.172;2024-02-04T18:46:42;7.30;74.80
12849;DHT22;6493;50.928;7.172;2024-02-04T18:51:47;7.30;74.90
12849;DHT22;6493;50.928;7.172;2024-02-04T18:56:51;7.30;74.90
12849;DHT22;6493;50.928;7.172;2024-02-04T19:01:55;7.30;74.80
12849;DHT22;6493;50.928;7.172;2024-02-04T19:07:02;7.30;74.80
12849;DHT22;6493;50.928;7.172;2024-02-04T19:12:06;7.30;74.90
12849;DHT22;6493;50.928;7.172;2024-02-04T19:17:10;7.30;74.80
12849;DHT22;6493;50.928;7.172;2024-02-04T19:22:15;7.30;75.10
12849;DHT22;6493;50.928;7.172;2024-02-04T19:27:18;7.30;75.00
12849;DHT22;6493;50.928;7.172;2024-02-04T19:32:23;7.20;75.00
12849;DHT22;6493;50.928;7.172;2024-02-04T19:37:28;7.20;75.00
12849;DHT22;6493;50.928;7.172;2024-02-04T19:42:31;7.20;75.00
12849;DHT22;6493;50.928;7.172;2024-02-04T19:47:35;7.10;74.80
12849;DHT22;6493;50.928;7.172;2024-02-04T19:52:40;7.10;75.10
12849;DHT22;6493;50.928;7.172;2024-02-04T19:57:45;7.00;74.90
12849;DHT22;6493;50.928;7.172;2024-02-04T20:02:49;7.10;75.10
12849;DHT22;6493;50.928;7.172;2024-02-04T20:07:54;7.00;75.00
12849;DHT22;6493;50.928;7.172;2024-02-04T20:12:59;7.00;75.10
12849;DHT22;6493;50.928;7.172;2024-02-04T20:18:03;7.00;75.20
12849;DHT22;6493;50.928;7.172;2024-02-04T20:23:08;7.00;75.20
12849;DHT22;6493;50.928;7.172;2024-02-04T20:28:12;7.00;75.30
12849;DHT22;6493;50.928;7.172;2024-02-04T20:33:15;6.90;75.10
12849;DHT22;6493;50.928;7.172;2024-02-04T20:38:20;6.90;75.10
12849;DHT22;6493;50.928;7.172;2024-02-04T20:43:24;6.90;75.10
12849;DHT22;6493;50.928;7.172;2024-02-04T20:48:28;6.90;75.10
12849;DHT22;6493;50.928;7.172;2024-02-04T20:53:33;6.90;75.40
12849;DHT22;6493;50.928;7.172;2024-02-04T20:58:37;6.90;75.30
12849;DHT22;6493;50.928;7.172;2024-02-04T21:03:41;6.90;75.50
12849;DHT22;6493;50.928;7.172;2024-02-04T21:08:46;6.90;75.50
12849;DHT22;6493;50.928;7.172;2024-02-04T21:13:50;6.90;75.70
12849;DHT22;6493;50.928;7.172;2024-02-04T21:18:54;6.90;75.60
12849;DHT22;6493;50.928;7.172;2024-02-04T21:23:59;6.80;75.70
12849;DHT22;6493;50.928;7.172;2024-02-04T21:29:03;6.80;75.70
12849;DHT22;6493;50.928;7.172;2024-02-04T21:34:07;6.80;75.70
12849;DHT22;6493;50.928;7.172;2024-02-04T21:39:12;6.80;75.90
12849;DHT22;6493;50.928;7.172;2024-02-04T21:44:18;6.70;75.90
12849;DHT22;6493;50.928;7.172;2024-02-04T21:49:22;6.80;75.80
12849;DHT22;6493;50.928;7.172;2024-02-04T21:54:27;6.80;75.90
12849;DHT22;6493;50.928;7.172;2024-02-04T21:59:30;6.80;75.80
12849;DHT22;6493;50.928;7.172;2024-02-04T22:04:34;6.80;75.80
12849;DHT22;6493;50.928;7.172;2024-02-04T22:09:39;6.80;75.90
12849;DHT22;6493;50.928;7.172;2024-02-04T22:14:43;6.80;75.80
12849;DHT22;6493;50.928;7.172;2024-02-04T22:19:47;6.80;75.90
12849;DHT22;6493;50.928;7.172;2024-02-04T22:24:52;6.80;75.90
12849;DHT22;6493;50.928;7.172;2024-02-04T22:29:55;6.80;75.90
12849;DHT22;6493;50.928;7.172;2024-02-04T22:35:01;6.80;75.80
12849;DHT22;6493;50.928;7.172;2024-02-04T22:40:12;6.90;75.90
12849;DHT22;6493;50.928;7.172;2024-02-04T22:45:16;6.90;75.80
12849;DHT22;6493;50.928;7.172;2024-02-04T22:50:20;6.90;75.70
12849;DHT22;6493;50.928;7.172;2024-02-04T22:55:25;6.90;75.80
12849;DHT22;6493;50.928;7.172;2024-02-04T23:00:29;6.90;75.80
12849;DHT22;6493;50.928;7.172;2024-02-04T23:05:33;7.00;75.90
12849;DHT22;6493;50.928;7.172;2024-02-04T23:10:38;6.90;76.40
12849;DHT22;6493;50.928;7.172;2024-02-04T23:15:42;7.00;75.70
12849;DHT22;6493;50.928;7.172;2024-02-04T23:20:47;7.00;75.80
12849;DHT22;6493;50.928;7.172;2024-02-04T23:25:52;7.00;75.60
12849;DHT22;6493;50.928;7.172;2024-02-04T23:30:56;7.10;75.70
12849;DHT22;6493;50.928;7.172;2024-02-04T23:35:59;7.00;75.50
12849;DHT22;6493;50.928;7.172;2024-02-04T23:41:05;7.10;75.60
12849;DHT22;6493;50.928;7.172;2024-02-04T23:46:09;7.10;75.60
12849;DHT22;6493;50.928;7.172;2024-02-04T23:51:13;7.10;75.50
12849;DHT22;6493;50.928;7.172;2024-02-04T23:56:18;7.10;75.40
